Time;durP1;ratioP1;P1;durP2;ratioP2;P2;SDS_P1;SDS_P2;PMS_P1;PMS_P2;Temp;Humidity;BMP_temperature;BMP_pressure;BME280_temperature;BME280_humidity;BME280_pressure;Samples;Min_cycle;Max_cycle;Signal;HPM_P1;HPM_P2
2023/11/17 00:02:18;;;;;;;29.40;19.73;;;12.00;99.90;;;;;;4957655;28;20374;-73
2023/11/17 00:04:44;;;;;;;34.90;21.25;;;12.00;99.90;;;;;;4957357;28;20027;-72
2023/11/17 00:07:10;;;;;;;34.60;20.85;;;12.00;99.90;;;;;;4957133;28;20485;-73
2023/11/17 00:09:35;;;;;;;32.63;21.35;;;12.00;99.90;;;;;;4957253;28;20087;-73
2023/11/17 00:12:01;;;;;;;31.30;20.58;;;12.00;99.90;;;;;;4957081;28;20110;-73
2023/11/17 00:14:27;;;;;;;33.60;20.83;;;12.00;99.90;;;;;;4957290;28;20038;-73
2023/11/17 00:16:53;;;;;;;30.33;20.17;;;12.00;99.90;;;;;;4957491;28;20122;-73
2023/11/17 00:19:18;;;;;;;32.30;21.13;;;12.00;99.90;;;;;;4957027;28;20019;-73
2023/11/17 00:21:44;;;;;;;34.40;20.27;;;12.00;99.90;;;;;;4957366;28;20357;-72
2023/11/17 00:24:10;;;;;;;30.58;20.70;;;12.00;99.90;;;;;;4957127;28;20041;-73
2023/11/17 00:26:36;;;;;;;35.05;21.38;;;12.00;99.90;;;;;;4972183;28;20127;-73
2023/11/17 00:29:02;;;;;;;31.25;21.08;;;12.00;99.90;;;;;;4957085;28;20059;-74
2023/11/17 00:31:31;;;;;;;37.95;20.83;;;11.90;99.90;;;;;;4956798;28;20031;-73
2023/11/17 00:33:57;;;;;;;30.83;19.98;;;11.90;99.90;;;;;;4960194;28;20481;-73
2023/11/17 00:36:23;;;;;;;29.83;20.17;;;11.90;99.90;;;;;;4965486;28;20099;-73
2023/11/17 00:38:50;;;;;;;30.30;21.05;;;11.90;99.90;;;;;;4957235;28;20074;-73
2023/11/17 00:41:18;;;;;;;35.97;22.25;;;11.90;99.90;;;;;;4956804;28;20034;-73
2023/11/17 00:43:44;;;;;;;33.15;20.23;;;12.00;99.90;;;;;;4956905;28;20027;-73
2023/11/17 00:46:10;;;;;;;35.00;22.30;;;12.00;99.90;;;;;;4956999;28;20139;-73
2023/11/17 00:48:37;;;;;;;32.85;21.48;;;12.00;99.90;;;;;;4956816;28;20063;-73
2023/11/17 00:51:03;;;;;;;32.15;20.73;;;12.00;99.90;;;;;;4956731;28;20045;-73
2023/11/17 00:53:29;;;;;;;33.83;20.30;;;12.00;99.90;;;;;;4956854;28;20480;-73
2023/11/17 00:56:04;;;;;;;32.60;20.42;;;12.00;99.90;;;;;;4956893;28;20032;-73
2023/11/17 00:58:30;;;;;;;32.67;20.17;;;11.90;99.90;;;;;;4956583;28;20022;-73
2023/11/17 01:00:56;;;;;;;31.50;19.70;;;11.90;99.90;;;;;;4955852;28;20020;-73
2023/11/17 01:03:23;;;;;;;34.83;21.30;;;11.90;99.90;;;;;;4956505;28;20062;-73
2023/11/17 01:05:49;;;;;;;33.22;20.75;;;11.90;99.90;;;;;;4956459;28;20530;-72
2023/11/17 01:08:15;;;;;;;31.38;19.65;;;11.90;99.90;;;;;;4956395;28;20102;-73
2023/11/17 01:10:41;;;;;;;32.35;20.58;;;11.90;99.90;;;;;;4955918;28;20049;-73
2023/11/17 01:13:10;;;;;;;34.63;20.80;;;11.90;99.90;;;;;;4956067;28;20039;-73
2023/11/17 01:15:37;;;;;;;31.17;19.25;;;11.90;99.90;;;;;;4956256;28;20646;-72
2023/11/17 01:18:06;;;;;;;26.85;18.98;;;11.90;99.90;;;;;;4956311;28;20059;-73
2023/11/17 01:20:33;;;;;;;27.15;18.58;;;11.90;99.90;;;;;;4956040;28;20445;-73
2023/11/17 01:23:01;;;;;;;25.15;16.48;;;11.90;99.90;;;;;;4956184;28;20032;-73
2023/11/17 01:25:29;;;;;;;25.00;15.68;;;11.90;99.90;;;;;;4956024;28;20378;-73
2023/11/17 01:27:55;;;;;;;29.45;17.00;;;11.90;99.90;;;;;;4956598;28;20461;-73
2023/11/17 01:30:20;;;;;;;27.92;16.63;;;11.90;99.90;;;;;;4955706;28;20050;-73
2023/11/17 01:32:46;;;;;;;28.75;16.80;;;11.90;99.90;;;;;;4954523;28;20086;-73
2023/11/17 01:35:12;;;;;;;31.25;17.98;;;11.90;99.90;;;;;;4955904;28;20035;-73
2023/11/17 01:37:38;;;;;;;29.00;17.95;;;11.90;99.90;;;;;;4955838;28;20028;-73
2023/11/17 01:40:05;;;;;;;29.50;17.83;;;11.90;99.90;;;;;;4956174;29;20027;-73
2023/11/17 01:42:32;;;;;;;24.73;17.20;;;11.90;99.90;;;;;;4955841;28;20058;-73
2023/11/17 01:44:58;;;;;;;27.33;17.80;;;11.90;99.90;;;;;;4955480;28;20062;-73
2023/11/17 01:47:24;;;;;;;27.60;17.60;;;11.90;99.90;;;;;;4955699;28;20495;-73
2023/11/17 01:49:50;;;;;;;26.50;17.80;;;11.90;99.90;;;;;;4955656;28;20023;-73
2023/11/17 01:52:18;;;;;;;27.33;17.35;;;11.90;99.90;;;;;;4955478;28;20077;-73
2023/11/17 01:54:48;;;;;;;31.38;18.50;;;11.90;99.90;;;;;;4955549;28;20105;-73
2023/11/17 01:57:14;;;;;;;26.50;17.55;;;11.90;99.90;;;;;;4955670;28;20393;-73
2023/11/17 01:59:40;;;;;;;28.85;16.83;;;11.90;99.90;;;;;;4952183;28;20093;-73
2023/11/17 02:02:06;;;;;;;23.10;16.48;;;11.90;99.90;;;;;;4952791;28;20027;-73
2023/11/17 02:04:33;;;;;;;22.73;15.07;;;11.90;99.90;;;;;;4953623;28;20073;-73
2023/11/17 02:07:05;;;;;;;26.88;16.52;;;11.90;99.90;;;;;;4955304;28;20051;-73
2023/11/17 02:09:59;;;;;;;32.67;17.73;;;11.90;99.90;;;;;;4954913;28;20118;-73
2023/11/17 02:12:52;;;;;;;24.80;15.50;;;11.90;99.90;;;;;;4954301;28;20047;-73
2023/11/17 02:15:24;;;;;;;;;;;11.80;99.90;;;;;;4955820;28;20034;-73
2023/11/17 02:17:54;;;;;;;27.77;16.63;;;11.80;99.90;;;;;;4953959;28;20276;-72
2023/11/17 02:20:25;;;;;;;28.80;18.10;;;11.90;99.90;;;;;;4955238;28;20027;-73
2023/11/17 02:22:57;;;;;;;25.17;16.42;;;11.90;99.90;;;;;;4955313;28;20024;-73
2023/11/17 02:25:44;;;;;;;25.65;16.05;;;11.90;99.90;;;;;;4954982;28;20166;-73
2023/11/17 02:28:37;;;;;;;24.98;16.50;;;11.90;99.90;;;;;;4954688;28;20019;-73
2023/11/17 02:31:15;;;;;;;36.65;19.48;;;12.00;99.90;;;;;;4954593;28;20466;-73
2023/11/17 02:33:48;;;;;;;29.38;18.50;;;11.90;99.90;;;;;;4954780;28;20082;-72
2023/11/17 02:36:19;;;;;;;31.63;18.55;;;11.90;99.90;;;;;;4954352;28;20659;-73
2023/11/17 02:39:14;;;;;;;31.65;21.25;;;11.90;99.90;;;;;;4954598;28;20078;-73
2023/11/17 02:41:56;;;;;;;29.65;21.13;;;11.90;99.90;;;;;;4954808;29;20027;-72
2023/11/17 02:44:29;;;;;;;34.42;21.27;;;11.90;99.90;;;;;;4954512;28;20022;-71
2023/11/17 02:47:00;;;;;;;37.97;23.25;;;11.90;99.90;;;;;;4954706;28;20031;-72
2023/11/17 02:49:34;;;;;;;34.90;22.45;;;12.00;99.90;;;;;;4954808;28;20474;-72
2023/11/17 02:52:15;;;;;;;36.97;23.15;;;11.90;99.90;;;;;;4954588;28;20059;-72
2023/11/17 02:54:41;;;;;;;36.20;22.55;;;11.90;99.90;;;;;;4954551;28;20050;-72
2023/11/17 02:57:08;;;;;;;43.28;26.73;;;12.00;99.90;;;;;;4953431;28;20118;-72
2023/11/17 02:59:35;;;;;;;38.63;24.58;;;11.90;99.90;;;;;;4954596;28;20035;-72
2023/11/17 03:02:04;;;;;;;43.88;26.33;;;11.90;99.90;;;;;;4954537;28;20060;-72
2023/11/17 03:04:31;;;;;;;46.15;27.90;;;11.90;99.90;;;;;;4954587;28;20043;-72
2023/11/17 03:06:57;;;;;;;39.22;25.63;;;12.00;99.90;;;;;;4954343;28;20035;-72
2023/11/17 03:09:23;;;;;;;40.95;25.40;;;12.00;99.90;;;;;;4954641;28;20106;-72
2023/11/17 03:11:50;;;;;;;42.15;26.80;;;11.90;99.90;;;;;;4954301;28;20477;-72
2023/11/17 03:14:16;;;;;;;41.83;27.30;;;12.00;99.90;;;;;;4954454;28;20031;-72
2023/11/17 03:16:42;;;;;;;45.63;28.08;;;12.00;99.90;;;;;;4954789;28;20552;-72
2023/11/17 03:19:10;;;;;;;45.13;28.67;;;12.00;99.90;;;;;;4954444;28;20036;-72
2023/11/17 03:21:45;;;;;;;45.75;28.15;;;12.00;99.90;;;;;;4954537;28;20102;-72
2023/11/17 03:24:20;;;;;;;47.28;28.85;;;12.00;99.90;;;;;;4957872;28;20478;-72
2023/11/17 03:26:52;;;;;;;54.40;29.58;;;;;;;;;;4958227;28;20478;-72
2023/11/17 03:29:19;;;;;;;46.90;29.98;;;;;;;;;;4958222;28;20015;-72
2023/11/17 03:31:49;;;;;;;41.67;26.52;;;11.90;99.90;;;;;;4957972;28;20477;-72
2023/11/17 03:34:30;;;;;;;41.22;25.83;;;11.90;99.90;;;;;;4958116;28;20031;-72
2023/11/17 03:37:01;;;;;;;41.45;26.85;;;11.90;99.90;;;;;;4958112;28;20039;-72
2023/11/17 03:39:31;;;;;;;46.30;27.55;;;11.90;99.90;;;;;;4958106;28;20031;-72
2023/11/17 03:41:59;;;;;;;42.78;27.35;;;11.90;99.90;;;;;;4957902;28;20031;-73
2023/11/17 03:44:25;;;;;;;47.28;28.42;;;11.80;99.90;;;;;;4957987;28;20023;-73
2023/11/17 03:46:54;;;;;;;43.85;28.35;;;11.80;99.90;;;;;;4957998;28;20038;-72
2023/11/17 03:49:20;;;;;;;43.08;29.23;;;11.80;99.90;;;;;;4957966;28;20026;-72
2023/11/17 03:51:50;;;;;;;46.63;29.55;;;11.80;99.90;;;;;;4956300;28;20401;-72
2023/11/17 03:54:22;;;;;;;46.00;28.90;;;11.80;99.90;;;;;;4957792;28;20035;-73
2023/11/17 03:56:52;;;;;;;47.75;27.80;;;11.70;99.90;;;;;;4957696;28;20059;-72
2023/11/17 03:59:19;;;;;;;43.55;27.48;;;11.70;99.90;;;;;;4957774;28;20023;-72
2023/11/17 04:01:45;;;;;;;43.28;28.55;;;11.70;99.90;;;;;;4957620;28;20031;-73
2023/11/17 04:04:11;;;;;;;48.75;27.50;;;11.70;99.90;;;;;;4957497;28;20489;-73
2023/11/17 04:06:38;;;;;;;38.38;26.67;;;11.70;99.90;;;;;;4957594;28;20031;-73
2023/11/17 04:09:05;;;;;;;40.10;25.92;;;11.60;99.90;;;;;;4957323;28;20025;-73
2023/11/17 04:11:34;;;;;;;41.95;27.02;;;11.60;99.90;;;;;;4957359;28;20065;-73
2023/11/17 04:14:00;;;;;;;40.90;26.52;;;11.50;99.90;;;;;;4957428;28;20035;-73
2023/11/17 04:16:26;;;;;;;40.22;25.50;;;11.40;99.90;;;;;;4957593;28;20082;-73
2023/11/17 04:18:52;;;;;;;38.60;25.42;;;11.40;99.90;;;;;;4957255;28;20031;-74
2023/11/17 04:21:18;;;;;;;34.28;24.48;;;11.50;99.90;;;;;;4957236;28;20111;-73
2023/11/17 04:23:44;;;;;;;41.97;25.38;;;11.50;99.90;;;;;;4956771;28;20436;-73
2023/11/17 04:26:09;;;;;;;38.53;24.77;;;11.50;99.90;;;;;;4959008;28;20023;-73
2023/11/17 04:28:38;;;;;;;43.53;24.17;;;11.40;99.90;;;;;;4965640;28;20059;-73
2023/11/17 04:31:07;;;;;;;37.58;25.13;;;11.40;99.90;;;;;;4956983;28;20053;-73
2023/11/17 04:33:35;;;;;;;38.75;26.13;;;11.40;99.90;;;;;;4956855;28;20027;-72
2023/11/17 04:36:01;;;;;;;43.45;26.30;;;11.40;99.90;;;;;;4956439;28;20148;-73
2023/11/17 04:38:27;;;;;;;37.45;25.63;;;11.40;99.90;;;;;;4957136;28;20509;-73
2023/11/17 04:40:54;;;;;;;35.38;24.40;;;11.20;99.90;;;;;;4956953;28;20031;-73
2023/11/17 04:43:19;;;;;;;37.30;24.63;;;11.30;99.90;;;;;;4957074;28;20022;-73
2023/11/17 04:45:45;;;;;;;38.67;25.80;;;11.30;99.90;;;;;;4956993;28;20031;-73
2023/11/17 04:48:11;;;;;;;39.03;24.92;;;11.30;99.90;;;;;;4956733;28;20058;-73
2023/11/17 04:50:39;;;;;;;39.03;24.67;;;11.30;99.90;;;;;;4956876;28;20046;-73
2023/11/17 04:53:05;;;;;;;36.35;23.80;;;11.20;99.90;;;;;;4971787;28;20355;-73
2023/11/17 04:55:31;;;;;;;36.78;23.85;;;11.30;99.90;;;;;;4956773;28;20023;-73
2023/11/17 04:57:57;;;;;;;38.13;24.98;;;11.20;99.90;;;;;;4956294;28;20024;-73
2023/11/17 05:00:23;;;;;;;36.67;24.88;;;11.20;99.90;;;;;;4956745;28;20090;-73
2023/11/17 05:02:49;;;;;;;39.67;24.95;;;11.20;99.90;;;;;;4956731;28;20023;-73
2023/11/17 05:05:15;;;;;;;39.97;25.13;;;11.20;99.90;;;;;;4956427;28;20027;-71
2023/11/17 05:07:44;;;;;;;37.88;25.20;;;11.20;99.90;;;;;;4956303;28;20022;-73
2023/11/17 05:10:11;;;;;;;34.72;23.77;;;11.20;99.90;;;;;;4956320;28;20098;-73
2023/11/17 05:12:37;;;;;;;39.50;24.83;;;11.20;99.90;;;;;;4956170;28;20055;-73
2023/11/17 05:15:04;;;;;;;38.20;22.88;;;11.20;99.90;;;;;;4956305;28;20020;-73
2023/11/17 05:17:34;;;;;;;35.50;24.70;;;11.10;99.90;;;;;;4956274;28;20392;-73
2023/11/17 05:20:00;;;;;;;38.33;25.02;;;11.00;99.90;;;;;;4956318;28;20445;-73
2023/11/17 05:22:26;;;;;;;40.30;23.23;;;11.00;99.90;;;;;;4956351;28;20042;-73
2023/11/17 05:24:53;;;;;;;39.10;25.58;;;11.00;99.90;;;;;;4956250;28;20391;-73
2023/11/17 05:27:19;;;;;;;39.17;25.63;;;11.00;99.90;;;;;;4956172;28;20027;-73
2023/11/17 05:29:45;;;;;;;40.75;25.52;;;11.00;99.90;;;;;;4955796;28;20031;-73
2023/11/17 05:32:11;;;;;;;39.50;25.42;;;11.10;99.90;;;;;;4964063;28;20371;-73
2023/11/17 05:34:36;;;;;;;43.33;26.10;;;11.10;99.90;;;;;;4958342;28;20031;-73
2023/11/17 05:37:02;;;;;;;40.22;25.63;;;11.10;99.90;;;;;;4955874;28;20058;-73
2023/11/17 05:39:29;;;;;;;37.42;23.05;;;11.00;99.90;;;;;;4956055;28;20127;-73
2023/11/17 05:41:55;;;;;;;32.67;23.23;;;11.00;99.90;;;;;;4955779;28;20027;-73
2023/11/17 05:44:21;;;;;;;36.55;24.52;;;10.90;99.90;;;;;;4955985;29;20029;-72
2023/11/17 05:46:47;;;;;;;37.00;25.40;;;10.90;99.90;;;;;;4955669;28;20019;-72
2023/11/17 05:49:12;;;;;;;39.45;24.95;;;10.80;99.90;;;;;;4955884;28;20031;-73
2023/11/17 05:51:38;;;;;;;36.05;24.25;;;10.80;99.90;;;;;;4955615;28;20394;-73
2023/11/17 05:54:04;;;;;;;38.60;24.30;;;10.80;99.90;;;;;;4955635;28;20019;-73
2023/11/17 05:56:29;;;;;;;41.25;24.67;;;10.80;99.90;;;;;;4955583;28;20572;-73
2023/11/17 05:58:57;;;;;;;33.53;21.92;;;10.80;99.90;;;;;;4955523;28;20023;-73
2023/11/17 06:01:23;;;;;;;33.80;22.17;;;10.80;99.90;;;;;;4955563;28;20019;-73
2023/11/17 06:03:49;;;;;;;31.65;20.95;;;10.90;99.90;;;;;;4955470;28;20498;-73
2023/11/17 06:06:15;;;;;;;36.08;18.52;;;10.80;99.90;;;;;;4955471;28;20167;-73
2023/11/17 06:08:40;;;;;;;24.45;17.52;;;10.90;99.90;;;;;;4955432;28;20036;-73
2023/11/17 06:11:06;;;;;;;28.63;18.88;;;10.80;99.90;;;;;;4955015;28;20123;-73
2023/11/17 06:13:32;;;;;;;22.58;17.77;;;10.80;99.90;;;;;;4954963;28;20141;-73
2023/11/17 06:15:57;;;;;;;27.55;19.85;;;10.80;99.90;;;;;;4955319;28;20549;-74
2023/11/17 06:18:23;;;;;;;29.52;19.90;;;10.80;99.90;;;;;;4955421;28;20055;-73
2023/11/17 06:20:49;;;;;;;27.52;19.63;;;10.80;99.90;;;;;;4955260;29;20378;-73
2023/11/17 06:23:15;;;;;;;27.20;20.63;;;10.60;99.90;;;;;;4954920;29;20030;-73
2023/11/17 06:25:41;;;;;;;28.08;20.77;;;10.60;99.90;;;;;;4955190;28;20030;-73
2023/11/17 06:28:07;;;;;;;34.38;23.55;;;10.60;99.90;;;;;;4955116;28;20059;-73
2023/11/17 06:30:33;;;;;;;34.20;22.70;;;10.60;99.90;;;;;;4954952;28;20034;-73
2023/11/17 06:32:59;;;;;;;37.97;23.02;;;10.50;99.90;;;;;;4958499;28;20035;-73
2023/11/17 06:35:25;;;;;;;32.47;21.60;;;10.50;99.90;;;;;;4966405;28;20101;-72
2023/11/17 06:37:52;;;;;;;31.13;21.58;;;10.50;99.90;;;;;;4963164;28;20494;-73
2023/11/17 06:40:17;;;;;;;29.27;21.23;;;10.50;99.90;;;;;;4954815;28;20016;-72
2023/11/17 06:42:43;;;;;;;35.28;22.50;;;10.50;99.90;;;;;;4954638;28;20027;-72
2023/11/17 06:45:12;;;;;;;33.47;20.83;;;10.60;99.90;;;;;;4954932;28;20094;-73
2023/11/17 06:47:42;;;;;;;30.48;20.27;;;10.50;99.90;;;;;;4955968;28;20489;-72
2023/11/17 06:50:11;;;;;;;35.22;21.55;;;10.50;99.90;;;;;;4972803;28;20021;-73
2023/11/17 06:52:38;;;;;;;33.40;22.40;;;10.50;99.90;;;;;;4973158;28;20027;-73
2023/11/17 06:55:04;;;;;;;30.75;20.40;;;10.40;99.90;;;;;;4972669;28;20045;-73
2023/11/17 06:57:32;;;;;;;30.23;20.55;;;10.40;99.90;;;;;;4971250;28;20046;-73
2023/11/17 06:59:57;;;;;;;31.10;21.65;;;10.40;99.90;;;;;;4972408;28;20018;-73
2023/11/17 07:02:24;;;;;;;36.58;22.25;;;10.40;99.90;;;;;;4971239;28;20019;-72
2023/11/17 07:04:50;;;;;;;35.47;23.33;;;10.30;99.90;;;;;;4971223;28;20023;-73
2023/11/17 07:07:16;;;;;;;32.58;22.75;;;10.30;99.90;;;;;;4973899;28;20038;-73
2023/11/17 07:09:42;;;;;;;39.97;24.75;;;10.40;99.90;;;;;;4988330;28;20023;-73
2023/11/17 07:12:09;;;;;;;46.05;25.13;;;10.40;99.90;;;;;;4973311;28;20051;-73
2023/11/17 07:14:35;;;;;;;44.00;25.30;;;10.40;99.90;;;;;;4973645;28;20078;-72
2023/11/17 07:17:04;;;;;;;46.53;25.17;;;10.40;99.90;;;;;;4973885;28;20039;-73
2023/11/17 07:19:32;;;;;;;54.65;27.08;;;10.40;99.90;;;;;;4973823;28;20114;-73
2023/11/17 07:21:58;;;;;;;82.47;30.10;;;10.40;99.90;;;;;;4973783;28;20023;-72
2023/11/17 07:24:24;;;;;;;55.58;29.02;;;10.40;99.90;;;;;;4973541;28;20469;-73
2023/11/17 07:26:50;;;;;;;51.03;29.73;;;10.40;99.90;;;;;;4973683;28;20050;-73
2023/11/17 07:29:16;;;;;;;59.97;31.80;;;10.40;99.90;;;;;;4973704;28;20023;-73
2023/11/17 07:31:46;;;;;;;57.63;32.85;;;10.40;99.90;;;;;;4972739;28;20088;-72
2023/11/17 07:34:15;;;;;;;65.97;32.67;;;10.50;99.90;;;;;;4971774;28;20058;-73
2023/11/17 07:36:42;;;;;;;63.35;32.78;;;10.50;99.90;;;;;;4971592;28;20054;-73
2023/11/17 07:39:18;;;;;;;61.65;32.50;;;10.60;99.90;;;;;;4971781;28;20022;-73
2023/11/17 07:41:44;;;;;;;59.08;32.10;;;10.60;99.90;;;;;;4970368;28;20122;-73
2023/11/17 07:44:11;;;;;;;65.90;32.75;;;10.60;99.90;;;;;;4972040;28;20114;-71
2023/11/17 07:46:37;;;;;;;63.45;30.95;;;10.70;99.90;;;;;;4972931;28;20050;-72
2023/11/17 07:49:05;;;;;;;70.43;33.22;;;10.70;99.90;;;;;;4973593;28;20050;-72
2023/11/17 07:51:34;;;;;;;67.68;32.85;;;10.80;99.90;;;;;;4973561;28;20437;-73
2023/11/17 07:53:59;;;;;;;64.45;33.60;;;10.80;99.90;;;;;;4973578;28;20053;-73
2023/11/17 07:56:27;;;;;;;60.38;34.58;;;10.90;99.90;;;;;;4972330;28;20054;-73
2023/11/17 07:58:54;;;;;;;67.43;35.53;;;10.90;99.90;;;;;;4973627;28;20034;-73
2023/11/17 08:01:20;;;;;;;62.60;34.05;;;10.90;99.90;;;;;;4973366;28;20026;-72
2023/11/17 08:03:45;;;;;;;55.95;32.95;;;10.90;99.90;;;;;;4971934;28;20541;-73
2023/11/17 08:06:12;;;;;;;55.72;33.75;;;11.00;99.90;;;;;;4973609;28;20110;-73
2023/11/17 08:08:40;;;;;;;59.35;34.97;;;11.10;99.90;;;;;;4973515;28;20050;-73
2023/11/17 08:11:09;;;;;;;62.58;34.58;;;11.10;99.90;;;;;;4976413;28;20084;-73
2023/11/17 08:13:37;;;;;;;58.50;35.60;;;11.20;99.90;;;;;;4976861;28;20046;-73
2023/11/17 08:16:06;;;;;;;58.65;36.70;;;11.20;99.90;;;;;;4976679;28;20054;-73
2023/11/17 08:18:37;;;;;;;60.28;35.13;;;11.30;99.90;;;;;;4976792;28;20030;-72
2023/11/17 08:21:06;;;;;;;64.85;37.83;;;11.40;99.90;;;;;;4976731;28;20512;-72
2023/11/17 08:23:32;;;;;;;67.43;42.35;;;11.40;99.90;;;;;;4976685;28;20362;-73
2023/11/17 08:25:58;;;;;;;68.00;41.95;;;11.50;99.90;;;;;;4976833;28;20034;-73
2023/11/17 08:28:25;;;;;;;67.35;40.17;;;11.50;99.90;;;;;;4976670;28;20015;-73
2023/11/17 08:30:51;;;;;;;60.63;36.10;;;11.60;99.90;;;;;;4976481;28;20485;-73
2023/11/17 08:33:17;;;;;;;68.50;36.25;;;11.60;99.90;;;;;;4976690;28;20090;-72
2023/11/17 08:35:43;;;;;;;66.45;34.65;;;11.60;99.90;;;;;;4976431;28;20092;-73
2023/11/17 08:38:09;;;;;;;60.53;36.25;;;11.70;99.90;;;;;;4976635;28;20031;-72
2023/11/17 08:40:35;;;;;;;63.40;36.08;;;;;;;;;;4976563;28;20540;-73
2023/11/17 08:43:03;;;;;;;61.00;36.08;;;11.60;99.90;;;;;;4976526;28;20027;-73
2023/11/17 08:45:29;;;;;;;57.75;35.08;;;11.70;99.90;;;;;;4975020;28;20029;-72
2023/11/17 08:47:55;;;;;;;60.70;35.38;;;11.70;99.90;;;;;;4976304;28;20381;-73
2023/11/17 08:50:21;;;;;;;56.10;35.90;;;11.80;99.90;;;;;;4976142;28;20058;-72
2023/11/17 08:52:47;;;;;;;59.45;35.13;;;11.80;99.90;;;;;;4976136;28;20177;-72
2023/11/17 08:55:16;;;;;;;57.50;34.53;;;11.80;99.90;;;;;;4976181;28;20489;-72
2023/11/17 08:57:44;;;;;;;60.30;35.22;;;11.80;99.90;;;;;;4974730;28;20027;-73
2023/11/17 09:00:24;;;;;;;55.47;35.08;;;11.90;99.90;;;;;;4975583;28;20027;-73
2023/11/17 09:02:51;;;;;;;60.30;35.63;;;11.90;99.90;;;;;;4973022;28;20027;-72
2023/11/17 09:05:19;;;;;;;56.03;35.08;;;12.00;99.90;;;;;;4966499;28;20027;-72
2023/11/17 09:07:46;;;;;;;61.75;36.25;;;12.00;99.90;;;;;;4968906;28;20042;-73
2023/11/17 09:10:26;;;;;;;54.05;34.85;;;12.10;99.90;;;;;;4969490;28;20031;-73
2023/11/17 09:12:53;;;;;;;63.17;37.83;;;12.20;99.90;;;;;;4969071;28;20454;-72
2023/11/17 09:15:27;;;;;;;65.20;37.40;;;12.20;99.90;;;;;;4964741;28;20457;-73
2023/11/17 09:17:53;;;;;;;63.17;39.97;;;12.30;99.90;;;;;;4956204;28;20065;-73
2023/11/17 09:20:23;;;;;;;67.97;41.15;;;12.40;99.90;;;;;;4955892;28;20035;-72
2023/11/17 09:22:50;;;;;;;61.75;39.15;;;12.40;99.90;;;;;;4956015;28;20031;-73
2023/11/17 09:25:17;;;;;;;60.10;37.50;;;12.60;99.90;;;;;;4955739;28;20020;-73
2023/11/17 09:27:54;;;;;;;67.80;39.25;;;12.50;99.90;;;;;;4955548;28;20027;-73
2023/11/17 09:30:21;;;;;;;69.32;39.63;;;12.50;99.90;;;;;;4955430;28;20032;-73
2023/11/17 09:32:57;;;;;;;67.45;40.92;;;12.70;99.90;;;;;;4955814;28;20023;-72
2023/11/17 09:35:27;;;;;;;70.20;40.55;;;12.70;99.90;;;;;;4955460;28;20023;-72
2023/11/17 09:37:56;;;;;;;74.95;42.08;;;12.70;99.90;;;;;;4955744;28;20019;-74
2023/11/17 09:40:23;;;;;;;71.78;41.78;;;12.80;99.90;;;;;;4955647;28;20050;-73
2023/11/17 09:42:53;;;;;;;73.40;41.83;;;12.70;99.90;;;;;;4955806;28;20482;-73
2023/11/17 09:45:27;;;;;;;70.85;41.20;;;12.80;99.90;;;;;;4955761;28;20026;-73
2023/11/17 09:48:01;;;;;;;64.20;40.67;;;12.90;99.90;;;;;;4955432;28;20034;-73
2023/11/17 09:50:29;;;;;;;68.22;42.30;;;12.90;99.90;;;;;;4955385;28;20098;-72
2023/11/17 09:52:59;;;;;;;69.88;42.75;;;12.90;99.90;;;;;;4955673;28;20488;-72
2023/11/17 09:55:30;;;;;;;71.05;43.80;;;13.00;99.90;;;;;;4955517;28;20482;-72
2023/11/17 09:58:17;;;;;;;71.93;42.50;;;13.00;99.90;;;;;;4969756;28;20339;-73
2023/11/17 10:00:45;;;;;;;66.40;42.00;;;13.00;99.90;;;;;;4955392;28;20386;-73
2023/11/17 10:03:13;;;;;;;65.68;40.75;;;;;;;;;;4955418;28;20024;-72
2023/11/17 10:05:40;;;;;;;68.75;43.25;;;13.00;99.90;;;;;;4956570;28;20035;-73
2023/11/17 10:08:15;;;;;;;72.55;43.65;;;13.10;99.90;;;;;;4974340;28;20027;-72
2023/11/17 10:10:44;;;;;;;67.32;41.10;;;13.10;99.90;;;;;;4967810;28;20047;-73
2023/11/17 10:13:12;;;;;;;63.25;41.67;;;13.20;99.90;;;;;;4960938;23;20105;-73
2023/11/17 10:15:39;;;;;;;70.10;42.03;;;13.30;99.90;;;;;;4954991;29;20531;-72
2023/11/17 10:18:07;;;;;;;67.60;41.72;;;13.30;99.90;;;;;;4954838;28;20035;-73
2023/11/17 10:20:41;;;;;;;68.28;42.60;;;13.40;99.90;;;;;;4955018;28;20023;-73
2023/11/17 10:23:07;;;;;;;67.65;42.00;;;13.50;99.90;;;;;;4955041;28;20038;-73
2023/11/17 10:25:34;;;;;;;67.90;39.75;;;13.50;99.90;;;;;;4954443;29;20034;-72
2023/11/17 10:28:03;;;;;;;65.03;40.78;;;13.60;99.90;;;;;;4954882;28;20046;-72
2023/11/17 10:30:34;;;;;;;62.35;39.65;;;13.70;99.90;;;;;;4953918;29;20473;-73
2023/11/17 10:33:25;;;;;;;59.67;39.15;;;13.80;99.90;;;;;;4954319;28;20035;-73
2023/11/17 10:36:11;;;;;;;59.38;36.92;;;13.80;99.90;;;;;;4954946;29;20458;-73
2023/11/17 10:38:39;;;;;;;58.78;36.15;;;13.90;99.90;;;;;;4953680;28;20023;-72
2023/11/17 10:41:30;;;;;;;59.40;35.75;;;13.90;99.90;;;;;;4954827;28;20027;-73
2023/11/17 10:44:01;;;;;;;53.40;34.05;;;14.00;99.90;;;;;;4954605;28;20042;-73
2023/11/17 10:46:35;;;;;;;54.85;36.13;;;14.00;99.90;;;;;;4954557;29;20027;-72
2023/11/17 10:49:06;;;;;;;53.90;34.72;;;14.10;99.90;;;;;;4954507;29;20474;-73
2023/11/17 10:51:34;;;;;;;52.15;34.17;;;14.10;99.90;;;;;;4954498;29;20035;-72
2023/11/17 10:54:04;;;;;;;49.97;32.78;;;14.20;99.90;;;;;;4985646;28;20110;-73
2023/11/17 10:56:30;;;;;;;59.17;35.08;;;14.30;99.90;;;;;;4953607;28;20024;-73
2023/11/17 10:58:58;;;;;;;48.45;32.15;;;14.40;99.90;;;;;;4954660;29;20597;-73
2023/11/17 11:01:31;;;;;;;50.88;32.95;;;14.40;99.90;;;;;;4954700;28;20050;-73
2023/11/17 11:03:59;;;;;;;50.28;29.45;;;14.60;99.90;;;;;;4954032;29;20057;-73
2023/11/17 11:06:28;;;;;;;47.50;29.98;;;14.70;99.90;;;;;;4985434;28;20385;-73
2023/11/17 11:08:59;;;;;;;48.40;31.58;;;14.50;99.90;;;;;;4954648;28;20027;-73
2023/11/17 11:11:26;;;;;;;55.33;32.58;;;14.50;99.90;;;;;;4954283;29;20050;-72
2023/11/17 11:13:56;;;;;;;53.33;33.13;;;14.50;99.90;;;;;;4954216;29;20070;-73
2023/11/17 11:16:25;;;;;;;54.00;32.20;;;14.40;99.90;;;;;;4953767;29;20478;-71
2023/11/17 11:18:54;;;;;;;50.30;33.05;;;14.40;99.90;;;;;;4954007;29;20027;-72
2023/11/17 11:21:21;;;;;;;49.38;33.08;;;14.40;99.90;;;;;;4954158;28;20031;-80
2023/11/17 11:23:49;;;;;;;57.63;33.15;;;14.40;99.90;;;;;;4954265;28;20035;-73
2023/11/17 11:26:17;;;;;;;55.13;33.25;;;14.40;99.90;;;;;;4953947;29;20110;-81
2023/11/17 11:28:44;;;;;;;47.60;30.80;;;14.40;99.90;;;;;;4954035;28;20016;-79
2023/11/17 11:31:16;;;;;;;50.35;29.63;;;14.40;99.90;;;;;;4954137;29;20389;-78
2023/11/17 11:33:43;;;;;;;50.42;32.00;;;14.40;99.90;;;;;;4953915;29;20484;-78
2023/11/17 11:36:12;;;;;;;52.65;30.98;;;14.40;99.90;;;;;;4953899;29;20054;-78
2023/11/17 11:38:42;;;;;;;52.25;29.52;;;14.40;99.90;;;;;;4953821;29;20035;-79
2023/11/17 11:41:15;;;;;;;45.65;29.65;;;14.40;99.90;;;;;;4954089;29;20078;-73
2023/11/17 11:43:45;;;;;;;45.28;30.35;;;14.40;99.90;;;;;;4953808;28;20051;-73
2023/11/17 11:46:17;;;;;;;46.88;29.73;;;14.40;99.90;;;;;;4957889;29;20090;-73
2023/11/17 11:48:51;;;;;;;43.13;28.73;;;14.40;99.90;;;;;;4956168;29;20027;-73
2023/11/17 11:51:23;;;;;;;43.90;28.65;;;14.40;99.90;;;;;;4963719;28;20397;-73
2023/11/17 11:54:06;;;;;;;42.10;27.30;;;14.40;99.90;;;;;;4957541;29;20027;-73
2023/11/17 11:56:40;;;;;;;44.10;27.30;;;14.40;99.90;;;;;;4957694;29;20029;-73
2023/11/17 11:59:06;;;;;;;50.13;29.85;;;14.40;99.90;;;;;;4957085;29;20028;-72
2023/11/17 12:01:34;;;;;;;44.95;30.85;;;14.40;99.90;;;;;;4957579;29;20023;-73
2023/11/17 12:04:05;;;;;;;45.30;28.48;;;14.40;99.90;;;;;;4957595;29;20016;-73
2023/11/17 12:06:33;;;;;;;47.08;29.75;;;14.40;99.90;;;;;;4957756;29;20019;-73
2023/11/17 12:09:00;;;;;;;44.38;28.83;;;14.40;99.90;;;;;;4957624;29;20491;-73
2023/11/17 12:11:44;;;;;;;46.20;28.05;;;14.40;99.90;;;;;;4957140;29;20046;-73
2023/11/17 12:14:12;;;;;;;40.15;26.98;;;14.40;99.90;;;;;;4954499;29;20405;-73
2023/11/17 12:16:38;;;;;;;41.85;27.05;;;14.50;99.90;;;;;;4954615;28;20489;-73
2023/11/17 12:19:05;;;;;;;39.28;26.23;;;14.50;99.90;;;;;;4956643;29;20031;-73
2023/11/17 12:21:40;;;;;;;40.40;27.33;;;14.50;99.90;;;;;;4956150;28;20035;-73
2023/11/17 12:24:09;;;;;;;41.28;27.95;;;14.50;99.90;;;;;;4957373;29;20023;-73
2023/11/17 12:26:40;;;;;;;42.78;26.65;;;14.50;99.90;;;;;;4957032;29;20028;-73
2023/11/17 12:29:11;;;;;;;40.20;27.85;;;14.50;99.90;;;;;;4957090;29;20066;-73
2023/11/17 12:31:38;;;;;;;38.60;25.58;;;14.50;99.90;;;;;;4955136;29;20056;-73
2023/11/17 12:34:07;;;;;;;44.78;26.45;;;14.50;99.90;;;;;;4954802;29;20089;-73
2023/11/17 12:36:34;;;;;;;38.85;24.55;;;14.50;99.90;;;;;;4955516;29;20440;-73